Time;durP1;ratioP1;P1;durP2;ratioP2;P2;SDS_P1;SDS_P2;PMS_P1;PMS_P2;Temp;Humidity;BMP_temperature;BMP_pressure;BME280_temperature;BME280_humidity;BME280_pressure;Samples;Min_cycle;Max_cycle;Signal;HPM_P1;HPM_P2
2023/05/24 00:01:41;;;;;;;3.23;1.60;;;;;;;8.25;71.65;102392.41;5098351;28;20116;-90
2023/05/24 00:07:02;;;;;;;2.63;1.60;;;;;;;8.21;71.42;102380.28;5098517;28;20493;-90
2023/05/24 00:09:39;;;;;;;1.92;1.58;;;;;;;8.15;71.56;102371.56;5098868;28;20039;-91
2023/05/24 00:12:17;;;;;;;2.53;1.55;;;;;;;8.27;71.77;102382.97;5097812;28;20021;-90
2023/05/24 00:15:00;;;;;;;3.28;1.70;;;;;;;8.12;72.02;102358.56;5098902;28;20020;-91
2023/05/24 00:17:29;;;;;;;2.55;1.65;;;;;;;8.21;71.65;102373.38;5098614;28;20035;-90
2023/05/24 00:19:54;;;;;;;2.97;1.70;;;;;;;8.12;71.83;102357.69;5098525;28;20453;-91
2023/05/24 00:22:20;;;;;;;3.33;1.60;;;;;;;8.09;71.94;102349.88;5098408;28;20052;-90
2023/05/24 00:24:47;;;;;;;3.10;1.80;;;;;;;8.20;72.02;102371.63;5098876;28;20020;-90
2023/05/24 00:27:14;;;;;;;2.05;1.75;;;;;;;8.16;72.33;102362.09;5098448;28;20056;-91
2023/05/24 00:29:39;;;;;;;4.47;2.00;;;;;;;7.99;72.22;102354.88;5098525;28;20099;-90
2023/05/24 00:32:05;;;;;;;2.87;1.60;;;;;;;8.04;72.81;102362.72;5098459;28;20062;-91
2023/05/24 00:34:51;;;;;;;2.10;1.70;;;;;;;7.89;72.64;102348.63;5097985;28;20055;-91
2023/05/24 00:37:36;;;;;;;2.50;1.40;;;;;;;7.91;73.36;102361.59;5098076;28;20119;-91
2023/05/24 00:40:08;;;;;;;2.22;1.60;;;;;;;7.79;73.02;102340.69;5097727;28;20051;-91
2023/05/24 00:42:34;;;;;;;2.78;1.60;;;;;;;7.87;73.08;102360.69;5077334;28;20092;-90
2023/05/24 00:44:59;;;;;;;2.47;1.47;;;;;;;7.85;73.10;102362.34;5093475;28;20456;-90
2023/05/24 00:47:24;;;;;;;1.77;1.50;;;;;;;7.84;73.66;102363.19;5106617;28;20016;-91
2023/05/24 00:49:50;;;;;;;2.83;1.57;;;;;;;7.77;73.43;102363.03;5101317;28;20556;-90
2023/05/24 00:52:16;;;;;;;1.60;1.50;;;;;;;7.72;74.04;102353.44;5097827;28;20020;-91
2023/05/24 00:54:42;;;;;;;2.47;1.48;;;;;;;7.78;73.35;102359.59;5097721;28;20024;-90
2023/05/24 00:57:08;;;;;;;3.00;1.80;;;;;;;7.77;73.26;102358.72;5098101;28;20102;-91
2023/05/24 00:59:34;;;;;;;2.30;1.60;;;;;;;7.77;73.76;102360.44;5097860;28;20269;-91
2023/05/24 01:01:59;;;;;;;1.35;1.25;;;;;;;7.68;73.66;102354.25;5096440;28;20472;-90
2023/05/24 01:04:25;;;;;;;1.20;1.10;;;;;;;7.67;73.88;102356.78;5099386;28;20032;-90
2023/05/24 01:07:09;;;;;;;2.00;1.43;;;;;;;7.62;74.36;102354.09;5097874;28;20024;-90
2023/05/24 01:10:03;;;;;;;1.73;1.20;;;;;;;7.51;74.68;102343.56;5096587;28;20089;-91
2023/05/24 01:12:55;;;;;;;1.55;1.38;;;;;;;7.49;75.91;102350.41;5076025;28;20020;-90
2023/05/24 01:15:35;;;;;;;2.17;1.20;;;;;;;7.43;74.77;102345.06;5076717;28;20028;-90
2023/05/24 01:18:06;;;;;;;3.88;1.33;;;;;;;7.42;74.67;102343.38;5077501;28;20024;-90
2023/05/24 01:20:32;;;;;;;3.28;1.48;;;;;;;7.42;74.71;102339.06;5080255;28;20028;-90
2023/05/24 01:23:33;;;;;;;2.38;1.60;;;;;;;7.42;74.59;102333.88;5076292;28;20480;-90
2023/05/24 01:26:01;;;;;;;3.33;1.55;;;;;;;7.41;74.61;102339.88;5083349;28;20036;-90
2023/05/24 01:28:26;;;;;;;2.30;1.73;;;;;;;7.36;74.72;102338.03;5097737;28;20087;-90
2023/05/24 01:30:53;;;;;;;2.10;1.90;;;;;;;7.34;74.55;102339.72;5096280;28;20048;-90
2023/05/24 01:33:19;;;;;;;2.65;1.60;;;;;;;7.31;75.30;102337.94;5096955;28;20054;-89
2023/05/24 01:35:45;;;;;;;2.23;1.40;;;;;;;7.21;75.33;102341.16;5097581;28;20020;-91
2023/05/24 01:38:10;;;;;;;2.10;1.50;;;;;;;7.15;75.13;102339.31;5097204;28;20035;-91
2023/05/24 01:40:37;;;;;;;3.00;1.67;;;;;;;7.13;75.25;102351.31;5097469;28;20089;-91
2023/05/24 01:43:32;;;;;;;1.77;1.52;;;;;;;7.12;75.58;102344.41;5095785;28;20032;-89
2023/05/24 01:46:10;;;;;;;3.08;1.55;;;;;;;7.08;75.40;102333.13;5097163;28;20028;-90
2023/05/24 01:48:38;;;;;;;1.95;1.60;;;;;;;7.09;75.51;102334.88;5097133;28;20035;-90
2023/05/24 01:51:17;;;;;;;1.73;1.48;;;;;;;7.04;75.81;102325.28;5096074;28;20115;-90
2023/05/24 01:53:51;;;;;;;1.90;1.50;;;;;;;7.01;75.88;102326.09;5097135;28;20020;-90
2023/05/24 01:56:19;;;;;;;2.50;1.70;;;;;;;6.98;76.15;102325.16;5097053;28;20031;-91
2023/05/24 01:58:46;;;;;;;2.80;1.42;;;;;;;6.95;76.44;102328.50;5096850;28;20030;-91
2023/05/24 02:01:12;;;;;;;;;;;;;;;6.94;76.39;102344.81;5097926;28;20075;-91
2023/05/24 02:03:38;;;;;;;2.35;1.50;;;;;;;6.91;76.33;102339.63;5097452;28;19916;-91
2023/05/24 02:06:04;;;;;;;2.17;1.30;;;;;;;6.86;76.80;102336.94;5097945;28;20031;-90
2023/05/24 02:08:29;;;;;;;2.30;1.50;;;;;;;6.80;77.13;102341.91;5104393;28;20040;-91
2023/05/24 02:10:54;;;;;;;2.78;1.60;;;;;;;6.78;76.69;102348.75;5105901;28;20030;-90
2023/05/24 02:13:23;;;;;;;2.73;1.60;;;;;;;6.78;77.00;102353.91;5100618;28;20081;-90
2023/05/24 02:15:48;;;;;;;2.80;1.60;;;;;;;6.72;77.02;102344.31;5096958;28;20031;-90
2023/05/24 02:18:17;;;;;;;1.93;1.60;;;;;;;6.72;77.06;102349.47;5096349;28;20375;-91
2023/05/24 02:20:42;;;;;;;2.58;1.40;;;;;;;6.67;77.07;102342.44;5096965;28;20020;-91
2023/05/24 02:23:08;;;;;;;3.30;1.47;;;;;;;6.64;77.28;102351.84;5096679;28;20052;-91
2023/05/24 02:25:33;;;;;;;2.53;1.87;;;;;;;6.61;77.05;102351.78;5096699;28;20020;-91
2023/05/24 02:27:59;;;;;;;3.67;1.75;;;;;;;6.64;77.38;102356.16;5096953;28;20020;-90
2023/05/24 02:30:24;;;;;;;3.20;1.70;;;;;;;6.63;77.34;102351.81;5096909;28;20052;-90
2023/05/24 02:32:50;;;;;;;2.17;1.53;;;;;;;6.60;77.27;102360.38;5096733;28;20051;-91
2023/05/24 02:35:15;;;;;;;2.57;1.80;;;;;;;6.53;77.81;102350.69;5096343;28;20390;-91
2023/05/24 02:37:41;;;;;;;1.58;1.27;;;;;;;6.53;77.45;102348.13;5096702;28;20138;-90
2023/05/24 02:40:08;;;;;;;3.03;1.55;;;;;;;6.51;77.81;102347.25;5095865;28;20031;-91
2023/05/24 02:42:34;;;;;;;1.50;1.40;;;;;;;6.46;77.86;102343.66;5096112;28;20111;-91
2023/05/24 02:44:59;;;;;;;1.53;1.43;;;;;;;6.46;77.42;102356.53;5095588;28;20032;-90
2023/05/24 02:47:27;;;;;;;2.85;1.70;;;;;;;6.45;77.71;102355.69;5096228;28;20438;-91
2023/05/24 02:49:54;;;;;;;1.90;1.40;;;;;;;6.44;78.07;102358.22;5096233;28;20017;-91
2023/05/24 02:52:21;;;;;;;2.10;1.40;;;;;;;6.36;77.88;102358.00;5095869;28;20023;-91
2023/05/24 02:54:47;;;;;;;2.00;1.40;;;;;;;6.34;78.65;102357.97;5096113;28;20463;-91
2023/05/24 02:57:12;;;;;;;2.23;1.33;;;;;;;6.29;78.42;102357.00;5095824;28;20034;-91
2023/05/24 02:59:37;;;;;;;1.65;1.55;;;;;;;6.22;78.19;102352.47;5096037;28;20030;-90
2023/05/24 03:02:03;;;;;;;1.60;1.30;;;;;;;6.22;78.77;102357.63;5094751;28;20032;-91
2023/05/24 03:04:28;;;;;;;2.73;1.57;;;;;;;6.22;78.63;102359.34;5096504;28;20031;-91
2023/05/24 03:06:54;;;;;;;1.50;1.40;;;;;;;6.21;79.37;102350.72;5095955;28;20111;-91
2023/05/24 03:09:19;;;;;;;2.25;1.70;;;;;;;6.17;78.86;102347.19;5095159;28;20032;-91
2023/05/24 03:11:44;;;;;;;2.90;1.70;;;;;;;6.19;78.87;102352.41;5095453;28;20032;-91
2023/05/24 03:14:10;;;;;;;1.90;1.70;;;;;;;6.20;78.61;102343.81;5094822;28;20377;-91
2023/05/24 03:16:36;;;;;;;3.72;1.77;;;;;;;6.20;78.85;102348.97;5095656;28;20105;-91
2023/05/24 03:19:02;;;;;;;2.73;1.67;;;;;;;6.17;79.32;102343.75;5099407;28;20103;-91
2023/05/24 03:21:28;;;;;;;2.40;1.70;;;;;;;6.15;79.32;102340.25;5095548;28;20452;-91
2023/05/24 03:23:53;;;;;;;2.67;1.70;;;;;;;6.02;79.60;102319.31;5095975;28;20049;-91
2023/05/24 03:26:19;;;;;;;2.20;1.85;;;;;;;6.13;79.31;102341.91;5095588;28;20020;-91
2023/05/24 03:28:46;;;;;;;1.63;1.27;;;;;;;6.08;79.89;102338.38;5094902;28;20031;-91
2023/05/24 03:31:11;;;;;;;4.18;1.75;;;;;;;6.07;79.49;102332.31;5101621;28;20032;-91
2023/05/24 03:33:37;;;;;;;3.17;1.87;;;;;;;6.05;79.43;102333.13;5111572;28;20032;-91
2023/05/24 03:36:03;;;;;;;3.33;1.80;;;;;;;6.09;79.72;102340.09;5096727;28;20376;-91
2023/05/24 03:38:30;;;;;;;3.30;1.85;;;;;;;6.08;79.90;102338.38;5095812;28;20494;-91
2023/05/24 03:40:55;;;;;;;2.80;1.90;;;;;;;6.08;79.95;102340.94;5096213;28;20016;-91
2023/05/24 03:43:20;;;;;;;2.50;1.90;;;;;;;6.06;79.70;102334.88;5095175;28;20021;-91
2023/05/24 03:45:46;;;;;;;3.45;1.88;;;;;;;6.02;79.63;102329.63;5096122;28;20480;-91
2023/05/24 03:48:12;;;;;;;3.13;2.00;;;;;;;6.08;79.81;102339.22;5094763;28;20092;-91
2023/05/24 03:50:38;;;;;;;3.40;1.95;;;;;;;6.10;79.80;102336.69;5094596;28;20024;-91
2023/05/24 03:53:04;;;;;;;4.40;2.00;;;;;;;6.10;79.81;102335.00;5077662;28;20024;-92
2023/05/24 03:55:29;;;;;;;2.83;2.03;;;;;;;6.09;79.57;102329.78;5095829;28;20032;-91
2023/05/24 03:57:54;;;;;;;5.45;2.50;;;;;;;6.12;79.72;102335.03;5094107;28;20051;-92
2023/05/24 04:00:20;;;;;;;3.43;2.20;;;;;;;6.14;79.73;102335.94;5095570;28;20035;-91
2023/05/24 04:02:45;;;;;;;5.00;2.40;;;;;;;6.17;79.69;102336.03;5095239;28;20115;-91
2023/05/24 04:05:12;;;;;;;3.40;1.98;;;;;;;6.20;79.96;102336.09;5094179;28;20035;-91
2023/05/24 04:07:38;;;;;;;2.75;2.10;;;;;;;6.23;79.65;102335.31;5095000;28;20039;-91
2023/05/24 04:10:05;;;;;;;2.57;2.10;;;;;;;6.23;79.91;102328.44;5095078;28;20017;-90
2023/05/24 04:12:31;;;;;;;3.13;2.20;;;;;;;6.18;79.93;102324.88;5094420;28;20038;-91
2023/05/24 04:14:57;;;;;;;3.97;2.30;;;;;;;6.22;79.84;102341.31;5094688;28;20093;-90
2023/05/24 04:17:23;;;;;;;4.63;2.40;;;;;;;6.25;79.89;102342.25;5094379;28;20024;-92
2023/05/24 04:19:50;;;;;;;4.00;2.20;;;;;;;6.28;80.25;102349.19;5094904;28;20081;-91
2023/05/24 04:22:17;;;;;;;3.35;2.20;;;;;;;6.28;80.15;102342.34;5094497;28;20036;-91
2023/05/24 04:24:43;;;;;;;4.20;2.42;;;;;;;6.33;80.05;102343.31;5097093;28;20020;-90
2023/05/24 04:27:09;;;;;;;3.08;2.17;;;;;;;6.39;80.07;102341.75;5096246;28;20024;-91
2023/05/24 04:29:35;;;;;;;3.47;2.33;;;;;;;6.37;80.32;102333.97;5094144;28;20040;-91
2023/05/24 04:32:00;;;;;;;4.27;2.17;;;;;;;6.45;80.35;102341.91;5094155;28;20024;-91
2023/05/24 04:34:28;;;;;;;4.25;2.30;;;;;;;6.47;79.99;102335.94;5094256;28;20043;-91
2023/05/24 04:36:54;;;;;;;3.20;2.30;;;;;;;6.54;80.04;102346.44;5095188;28;20043;-91
2023/05/24 04:39:19;;;;;;;3.37;2.20;;;;;;;6.52;80.15;102346.41;5094353;28;20036;-91
2023/05/24 04:41:44;;;;;;;3.38;2.20;;;;;;;6.56;80.33;102348.22;5095061;28;20107;-90
2023/05/24 04:44:09;;;;;;;2.97;1.90;;;;;;;6.60;80.60;102349.16;5076358;28;20474;-90
2023/05/24 04:46:40;;;;;;;4.88;2.10;;;;;;;6.61;80.11;102346.63;5096222;28;20088;-91
2023/05/24 04:49:07;;;;;;;3.60;2.22;;;;;;;6.69;80.38;102353.69;5098693;28;20026;-91
2023/05/24 04:51:32;;;;;;;4.32;2.15;;;;;;;6.75;80.59;102351.28;5100882;28;20020;-90
2023/05/24 04:53:58;;;;;;;5.53;2.33;;;;;;;6.82;80.81;102347.09;5104168;28;20016;-90
2023/05/24 04:56:25;;;;;;;4.10;2.30;;;;;;;6.87;80.93;102345.53;5104959;28;20502;-90
2023/05/24 04:58:51;;;;;;;3.03;2.25;;;;;;;6.94;80.56;102347.41;5099074;28;20031;-90
2023/05/24 05:01:19;;;;;;;3.63;2.07;;;;;;;7.01;80.66;102354.47;5097613;28;20188;-91
2023/05/24 05:03:44;;;;;;;3.75;2.30;;;;;;;7.06;80.69;102350.28;5098318;28;20031;-90
2023/05/24 05:06:10;;;;;;;4.53;2.40;;;;;;;7.14;80.85;102347.88;5098578;28;20016;-90
2023/05/24 05:08:35;;;;;;;3.33;2.27;;;;;;;7.19;80.67;102343.72;5097026;28;20034;-90
2023/05/24 05:11:01;;;;;;;3.63;2.10;;;;;;;7.16;81.10;102330.72;5097056;28;20027;-90
2023/05/24 05:13:26;;;;;;;3.23;1.93;;;;;;;7.32;81.86;102339.69;5098005;28;20483;-90
2023/05/24 05:15:52;;;;;;;4.03;2.20;;;;;;;7.39;81.40;102351.03;5097339;28;20026;-91
2023/05/24 05:18:24;;;;;;;5.47;2.50;;;;;;;7.46;81.44;102355.47;5079664;28;20032;-90
2023/05/24 05:20:50;;;;;;;2.30;2.10;;;;;;;7.52;81.43;102347.00;5096556;28;20024;-90
2023/05/24 05:23:16;;;;;;;3.47;2.00;;;;;;;7.58;81.75;102354.91;5096991;28;20043;-90
2023/05/24 05:25:43;;;;;;;2.50;2.00;;;;;;;7.63;82.52;102352.41;5097211;28;20020;-92
2023/05/24 05:28:08;;;;;;;1.70;1.60;;;;;;;7.71;82.31;102356.88;5096484;28;20448;-91
2023/05/24 05:30:33;;;;;;;4.05;2.20;;;;;;;7.77;85.03;102358.72;5097470;28;20052;-88
2023/05/24 05:32:58;;;;;;;2.10;1.77;;;;;;;7.80;82.57;102358.78;5099639;28;20028;-87
2023/05/24 05:35:24;;;;;;;3.03;1.83;;;;;;;7.85;82.17;102354.59;5096831;28;20104;-88
2023/05/24 05:37:49;;;;;;;3.13;2.15;;;;;;;7.96;82.12;102356.53;5096736;28;20046;-88
2023/05/24 05:40:14;;;;;;;3.40;2.10;;;;;;;7.93;81.80;102344.41;5078084;28;20024;-88
2023/05/24 05:42:40;;;;;;;3.77;2.00;;;;;;;8.09;81.81;102352.47;5096400;28;20027;-88
2023/05/24 05:45:06;;;;;;;2.85;1.80;;;;;;;8.16;81.55;102350.03;5096080;28;20039;-89
2023/05/24 05:47:33;;;;;;;3.47;1.80;;;;;;;8.26;81.60;102355.38;5096415;28;20039;-88
2023/05/24 05:49:59;;;;;;;3.97;2.00;;;;;;;8.33;81.54;102352.94;5096383;28;20020;-87
2023/05/24 05:52:25;;;;;;;1.83;1.73;;;;;;;8.45;82.26;102357.44;5095683;28;20123;-87
2023/05/24 05:54:51;;;;;;;2.80;1.80;;;;;;;8.53;81.81;102360.19;5095847;28;20062;-88
2023/05/24 05:57:18;;;;;;;2.10;1.87;;;;;;;8.58;82.07;102353.41;5094443;28;20050;-88
2023/05/24 05:59:46;;;;;;;1.63;1.50;;;;;;;8.69;82.92;102366.50;5095096;28;20054;-88
2023/05/24 06:02:11;;;;;;;2.22;1.58;;;;;;;8.76;82.95;102368.38;5095145;28;20461;-88
2023/05/24 06:04:37;;;;;;;1.40;1.30;;;;;;;8.82;83.33;102367.59;5094421;28;20056;-89
2023/05/24 06:07:03;;;;;;;1.10;1.10;;;;;;;8.90;83.84;102370.28;5095435;28;20381;-88
2023/05/24 06:09:28;;;;;;;7.63;2.50;;;;;;;9.01;88.07;102381.69;5095040;28;20028;-87
2023/05/24 06:11:53;;;;;;;11.33;3.50;;;;;;;9.08;86.33;102370.59;5094436;28;20529;-88
2023/05/24 06:14:20;;;;;;;7.87;3.00;;;;;;;9.27;86.07;102374.34;5095169;28;20019;-87
2023/05/24 06:16:46;;;;;;;6.10;2.47;;;;;;;9.69;85.64;102376.63;5095050;28;20480;-88
2023/05/24 06:19:12;;;;;;;3.07;2.20;;;;;;;10.00;84.83;102383.09;5094240;28;20035;-88
2023/05/24 06:21:39;;;;;;;7.03;2.80;;;;;;;10.31;85.84;102382.53;5094931;28;20035;-87
2023/05/24 06:24:08;;;;;;;9.65;3.72;;;;;;;10.65;84.01;102381.19;5093754;28;20024;-88
2023/05/24 06:26:35;;;;;;;12.05;4.32;;;;;;;10.96;81.95;102384.03;5094980;28;20153;-88
2023/05/24 06:29:01;;;;;;;10.13;4.10;;;;;;;10.93;81.81;102385.75;5095059;28;20035;-91
2023/05/24 06:31:26;;;;;;;15.00;4.73;;;;;;;11.14;81.20;102387.66;5093971;28;20028;-86
2023/05/24 06:33:51;;;;;;;8.67;3.60;;;;;;;11.56;82.32;102386.16;5094340;28;20456;-85
2023/05/24 06:36:16;;;;;;;11.77;3.73;;;;;;;12.40;79.61;102389.06;5093107;28;20035;-85
2023/05/24 06:38:42;;;;;;;14.63;5.03;;;;;;;13.15;72.85;102379.53;5093500;28;20051;-87
2023/05/24 06:41:07;;;;;;;16.47;5.47;;;;;;;12.97;72.99;102385.66;5093720;28;20464;-87
2023/05/24 06:43:36;;;;;;;16.13;4.80;;;;;;;12.80;74.94;102381.31;5094159;28;20040;-86
2023/05/24 06:46:01;;;;;;;18.67;5.80;;;;;;;13.17;71.38;102374.34;5093700;22;20048;-85
2023/05/24 06:48:26;;;;;;;15.70;5.10;;;;;;;13.09;72.44;102382.19;5073544;28;20012;-85
2023/05/24 06:50:51;;;;;;;15.03;4.50;;;;;;;13.03;72.18;102385.66;5073697;28;20028;-79
2023/05/24 06:53:17;;;;;;;19.93;6.60;;;;;;;12.79;71.81;102383.91;5072495;28;20046;-88
2023/05/24 06:55:42;;;;;;;15.30;5.20;;;;;;;12.63;73.16;102388.25;5074240;28;20465;-88
2023/05/24 06:58:13;;;;;;;13.57;4.97;;;;;;;12.61;73.13;102392.59;5073642;28;20484;-88
2023/05/24 07:00:38;;;;;;;17.65;5.80;;;;;;;12.56;71.38;102392.56;5073115;28;20032;-86
2023/05/24 07:03:03;;;;;;;17.93;5.37;;;;;;;12.43;73.42;102386.50;5073297;28;20032;-87
2023/05/24 07:05:28;;;;;;;12.47;4.70;;;;;;;12.55;73.83;102387.38;5074000;28;20040;-85
2023/05/24 07:07:54;;;;;;;16.57;5.43;;;;;;;12.58;71.45;102382.19;5072516;28;20033;-87
2023/05/24 07:10:19;;;;;;;16.27;4.90;;;;;;;12.53;73.90;102374.38;5072236;28;20054;-87
2023/05/24 07:12:44;;;;;;;18.13;5.70;;;;;;;12.61;69.84;102390.00;5073297;28;20032;-87
2023/05/24 07:15:10;;;;;;;17.37;5.60;;;;;;;12.51;70.95;102386.50;5072328;28;20032;-88
2023/05/24 07:17:35;;;;;;;19.43;6.20;;;;;;;12.33;69.95;102388.19;5073112;28;20024;-87
2023/05/24 07:20:01;;;;;;;15.97;5.50;;;;;;;12.16;71.78;102395.97;5073036;28;20453;-85
2023/05/24 07:22:27;;;;;;;15.23;4.80;;;;;;;12.24;72.56;102390.78;5072561;28;20020;-86
2023/05/24 07:24:53;;;;;;;16.95;4.93;;;;;;;12.39;72.31;102370.88;5073795;28;20036;-88
2023/05/24 07:27:19;;;;;;;14.20;4.43;;;;;;;12.56;69.93;102394.31;5072734;28;20392;-85
2023/05/24 07:29:44;;;;;;;18.07;4.73;;;;;;;12.45;69.87;102396.91;5072447;28;20021;-91
2023/05/24 07:32:10;;;;;;;16.63;4.37;;;;;;;12.48;70.06;102399.50;5073306;28;20104;-87
2023/05/24 07:34:35;;;;;;;14.93;4.10;;;;;;;12.58;67.86;102392.59;5072127;28;20416;-87
2023/05/24 07:37:00;;;;;;;11.17;3.97;;;;;;;12.63;67.57;102396.06;5072991;28;20024;-86
2023/05/24 07:39:26;;;;;;;12.30;4.07;;;;;;;12.48;67.68;102403.00;5072585;28;20120;-88
2023/05/24 07:41:53;;;;;;;10.93;3.83;;;;;;;12.54;68.18;102406.47;5071888;28;20027;-87
2023/05/24 07:44:18;;;;;;;;;;;;;;;12.58;67.79;102397.81;5072249;28;20043;-86
2023/05/24 07:46:44;;;;;;;14.37;3.77;;;;;;;12.60;69.05;102406.50;5072702;28;19916;-86
2023/05/24 07:49:09;;;;;;;12.30;3.40;;;;;;;12.72;69.52;102401.28;5063480;28;20024;-87
2023/05/24 07:51:35;;;;;;;14.37;4.17;;;;;;;12.94;67.21;102404.75;5072384;28;20051;-86
2023/05/24 07:54:01;;;;;;;14.57;4.00;;;;;;;13.11;67.01;102396.09;5064459;28;20024;-88
2023/05/24 07:56:26;;;;;;;7.53;2.97;;;;;;;13.29;68.51;102397.75;5071504;28;20381;-88
2023/05/24 07:58:55;;;;;;;10.77;3.40;;;;;;;13.51;63.63;102387.34;5068522;28;20048;-89
2023/05/24 08:01:23;;;;;;;10.25;3.53;;;;;;;13.72;62.36;102395.09;5072908;28;20400;-87
2023/05/24 08:03:51;;;;;;;13.65;3.80;;;;;;;13.80;61.87;102404.63;5071937;28;20128;-88
2023/05/24 08:06:17;;;;;;;9.07;3.83;;;;;;;13.94;64.39;102400.22;5071879;28;20028;-87
2023/05/24 08:08:44;;;;;;;9.60;3.20;;;;;;;14.08;64.16;102394.06;5073074;28;20120;-89
2023/05/24 08:11:09;;;;;;;8.73;3.50;;;;;;;14.27;61.28;102398.31;5072371;28;20495;-78
2023/05/24 08:13:35;;;;;;;11.43;3.60;;;;;;;14.40;60.75;102393.88;5072109;28;20032;-83
2023/05/24 08:16:00;;;;;;;13.47;3.90;;;;;;;14.35;60.43;102398.28;5072140;28;20029;-83
2023/05/24 08:18:25;;;;;;;12.20;3.77;;;;;;;14.23;61.74;102399.19;5071462;28;20057;-83
2023/05/24 08:20:51;;;;;;;11.47;3.93;;;;;;;14.26;61.47;102393.97;5072117;28;20032;-85
2023/05/24 08:23:16;;;;;;;6.37;3.17;;;;;;;14.42;62.13;102397.34;5076018;28;20471;-83
2023/05/24 08:25:41;;;;;;;15.17;3.60;;;;;;;14.64;61.51;102390.22;5075309;28;20035;-83
2023/05/24 08:28:07;;;;;;;11.03;3.50;;;;;;;14.82;59.13;102398.84;5075646;28;20036;-83
2023/05/24 08:30:32;;;;;;;9.90;3.40;;;;;;;14.74;60.61;102401.50;5076329;28;20376;-84
2023/05/24 08:32:57;;;;;;;8.03;3.13;;;;;;;14.73;60.55;102407.59;5075133;28;20035;-88
2023/05/24 08:35:23;;;;;;;7.13;2.80;;;;;;;14.77;62.16;102400.59;5073596;28;20109;-85
2023/05/24 08:37:48;;;;;;;11.57;3.40;;;;;;;14.89;58.12;102394.44;5067269;28;20380;-85
2023/05/24 08:40:14;;;;;;;10.70;3.23;;;;;;;14.87;59.46;102390.94;5055886;28;20037;-85
2023/05/24 08:42:40;;;;;;;9.83;3.20;;;;;;;14.79;58.34;102396.25;5070976;28;20028;-86
2023/05/24 08:45:11;;;;;;;15.30;3.83;;;;;;;14.61;60.48;102389.38;5074979;28;20032;-80
2023/05/24 08:47:37;;;;;;;7.68;2.90;;;;;;;14.62;61.01;102381.53;5057115;28;20055;-86
2023/05/24 08:50:04;;;;;;;13.85;3.33;;;;;;;14.51;59.64;102380.75;5055589;28;20029;-78
2023/05/24 08:52:31;;;;;;;9.98;3.55;;;;;;;14.34;60.89;102389.56;5054634;28;20481;-87
2023/05/24 08:54:58;;;;;;;9.00;3.30;;;;;;;14.21;61.52;102385.28;5055855;28;20025;-83
2023/05/24 08:57:25;;;;;;;5.63;2.50;;;;;;;14.25;62.52;102380.91;5056035;28;20043;-87
2023/05/24 08:59:54;;;;;;;7.40;2.50;;;;;;;14.31;62.55;102380.88;5055465;28;20432;-87
2023/05/24 09:02:20;;;;;;;9.38;3.20;;;;;;;14.45;61.36;102372.94;5055839;28;20385;-85
2023/05/24 09:04:48;;;;;;;8.63;2.90;;;;;;;14.52;60.42;102369.44;5052674;28;20091;-84
2023/05/24 09:07:16;;;;;;;5.35;2.42;;;;;;;14.63;61.81;102369.34;5050327;28;20074;-86
2023/05/24 09:09:45;;;;;;;10.68;3.15;;;;;;;14.59;60.53;102372.84;5056319;28;20025;-89
2023/05/24 09:12:14;;;;;;;10.82;3.05;;;;;;;14.64;60.88;102368.47;5056159;28;20072;-90
2023/05/24 09:14:44;;;;;;;10.52;3.75;;;;;;;14.65;59.43;102373.66;5055622;28;20021;-88
2023/05/24 09:17:15;;;;;;;8.20;3.03;;;;;;;14.66;58.53;102370.16;5055761;28;20385;-89
2023/05/24 09:19:48;;;;;;;10.50;3.58;;;;;;;14.66;56.28;102371.94;5055911;28;20533;-87
2023/05/24 09:22:13;;;;;;;7.03;3.00;;;;;;;14.56;59.14;102370.28;5055096;28;20024;-87
2023/05/24 09:24:42;;;;;;;5.83;2.40;;;;;;;14.57;60.07;102372.00;5056248;28;20051;-89
2023/05/24 09:27:08;;;;;;;7.30;2.78;;;;;;;14.52;60.15;102379.88;5055264;28;20025;-89
2023/05/24 09:29:36;;;;;;;9.60;3.00;;;;;;;14.43;58.46;102377.31;5056296;28;20036;-92
2023/05/24 09:32:03;;;;;;;11.45;3.25;;;;;;;14.20;58.47;102373.09;5056660;28;20028;-93
2023/05/24 09:34:36;;;;;;;10.43;3.08;;;;;;;14.02;58.27;102367.13;5055426;28;20083;-93
2023/05/24 09:37:02;;;;;;;11.23;3.50;;;;;;;14.21;57.72;102367.88;5056356;28;20045;-93
2023/05/24 09:39:27;;;;;;;9.10;3.07;;;;;;;14.51;59.54;102368.53;5056302;28;20108;-93
2023/05/24 09:41:56;;;;;;;13.07;3.57;;;;;;;14.56;55.30;102371.13;5056483;28;20068;-92
2023/05/24 09:44:27;;;;;;;10.35;3.30;;;;;;;14.77;55.95;102370.13;5056412;28;20029;-91
2023/05/24 09:47:00;;;;;;;8.27;2.80;;;;;;;15.07;56.33;102368.09;5069024;28;20047;-92
2023/05/24 09:49:25;;;;;;;8.18;2.80;;;;;;;15.39;55.86;102359.03;5076034;28;20453;-90
2023/05/24 09:51:51;;;;;;;9.17;3.37;;;;;;;15.72;52.69;102361.28;5076427;28;20109;-88
2023/05/24 09:54:17;;;;;;;11.60;3.30;;;;;;;15.83;50.51;102361.13;5075129;28;20021;-92
2023/05/24 09:56:45;;;;;;;13.07;3.50;;;;;;;15.74;51.45;102351.69;5076932;28;20027;-91
2023/05/24 09:59:10;;;;;;;14.38;3.95;;;;;;;15.75;51.00;102354.25;5075155;28;20017;-91
2023/05/24 10:01:36;;;;;;;8.00;2.60;;;;;;;16.04;54.06;102352.16;5076119;28;20023;-93
2023/05/24 10:04:05;;;;;;;8.13;2.57;;;;;;;16.15;54.04;102357.25;5076579;28;20024;-93
2023/05/24 10:06:35;;;;;;;3.70;2.20;;;;;;;16.14;54.16;102352.91;5076076;28;20091;-92
2023/05/24 10:09:03;;;;;;;12.30;3.35;;;;;;;15.99;52.92;102354.84;5076257;28;20036;-91
2023/05/24 10:11:40;;;;;;;10.90;3.00;;;;;;;15.84;53.11;102353.31;5075802;28;20029;-93
2023/05/24 10:14:07;;;;;;;7.55;2.80;;;;;;;15.98;53.25;102353.13;5075542;28;20089;-90
2023/05/24 10:16:33;;;;;;;7.38;3.22;;;;;;;16.25;54.37;102347.50;5076200;28;20052;-90
2023/05/24 10:18:58;;;;;;;10.43;3.23;;;;;;;16.50;51.27;102342.72;5077146;28;20051;-90
2023/05/24 10:21:27;;;;;;;9.23;3.13;;;;;;;16.72;52.30;102347.66;5075864;28;20033;-94
2023/05/24 10:23:57;;;;;;;7.82;3.00;;;;;;;16.78;49.04;102347.53;5075400;28;20063;-90
2023/05/24 10:26:27;;;;;;;9.40;3.03;;;;;;;16.59;50.49;102341.72;5076377;28;20096;-94
2023/05/24 10:28:57;;;;;;;7.90;2.83;;;;;;;16.47;49.59;102337.56;5075503;28;20074;-93
2023/05/24 10:31:28;;;;;;;7.43;2.65;;;;;;;16.47;52.28;102341.03;5075546;28;20016;-95
2023/05/24 10:33:57;;;;;;;6.55;2.50;;;;;;;16.47;53.06;102342.81;5075945;28;20051;-94
2023/05/24 10:36:24;;;;;;;4.38;2.17;;;;;;;16.51;53.21;102336.59;5076121;28;20107;-94
2023/05/24 10:38:53;;;;;;;5.20;2.20;;;;;;;16.52;52.86;102351.44;5075355;28;20054;-93
2023/05/24 10:41:18;;;;;;;4.25;2.00;;;;;;;16.49;53.73;102352.38;5076071;28;20040;-94
2023/05/24 10:43:47;;;;;;;3.73;1.80;;;;;;;16.58;53.73;102340.88;5074898;28;20029;-88
2023/05/24 10:46:15;;;;;;;9.43;2.70;;;;;;;16.52;48.86;102343.56;5073951;28;20040;-94
2023/05/24 10:48:41;;;;;;;8.57;2.70;;;;;;;16.61;52.53;102340.78;5075890;28;20074;-91
2023/05/24 10:51:31;;;;;;;5.90;2.40;;;;;;;16.78;52.38;102340.50;5074654;28;20032;-95
2023/05/24 10:53:57;;;;;;;6.57;2.50;;;;;;;16.81;49.17;102337.84;5075552;28;20084;-94
2023/05/24 10:56:26;;;;;;;9.25;2.78;;;;;;;16.70;49.22;102339.78;5075426;28;20476;-93
2023/05/24 10:58:54;;;;;;;7.10;2.63;;;;;;;16.72;50.30;102340.63;5075360;28;20032;-96
2023/05/24 11:01:27;;;;;;;7.00;2.53;;;;;;;16.64;49.13;102329.41;5075495;28;20085;-95
2023/05/24 11:04:25;;;;;;;5.75;2.72;;;;;;;16.61;49.35;102327.69;5076016;28;20024;-95
2023/05/24 11:07:00;;;;;;;9.73;3.13;;;;;;;16.54;50.31;102335.72;5073260;28;20119;-81
2023/05/24 11:09:26;;;;;;;9.35;2.88;;;;;;;16.40;49.35;102331.56;5069086;28;20059;-85
2023/05/24 11:11:59;;;;;;;9.25;2.80;;;;;;;16.32;48.82;102341.28;5053324;28;20027;-86
2023/05/24 11:14:28;;;;;;;8.05;2.70;;;;;;;16.28;49.59;102342.22;5067072;28;20115;-91
2023/05/24 11:16:54;;;;;;;6.35;2.50;;;;;;;16.27;48.93;102341.34;5073942;28;20487;-92
2023/05/24 11:19:49;;;;;;;10.23;2.60;;;;;;;16.31;49.10;102345.66;5073960;28;20104;-88
2023/05/24 11:22:15;;;;;;;7.63;2.80;;;;;;;16.34;50.58;102337.75;5072907;28;20025;-90
2023/05/24 11:24:41;;;;;;;7.93;3.00;;;;;;;16.31;48.78;102339.56;5073812;28;20020;-92
2023/05/24 11:27:09;;;;;;;9.02;2.97;;;;;;;16.28;50.69;102337.84;5073263;28;20372;-89
2023/05/24 11:29:45;;;;;;;8.43;3.22;;;;;;;16.04;50.18;102341.69;5075303;28;20166;-95
2023/05/24 11:32:16;;;;;;;7.72;2.83;;;;;;;16.02;51.15;102333.00;5075196;28;20036;-91
2023/05/24 11:34:48;;;;;;;8.98;2.63;;;;;;;16.12;50.50;102337.19;5073306;28;20489;-88